メインページ
METAR-TAF:

METAR-TAF

空港 :

コナクリ, ギニア

コナクリ国際空港

緯度: 09-34N, 経度: 013-37W, 海抜: 26m

現時点の気象観測

当レポートは46分前の01:00(UTC)に作成
無風
気温 26°C
湿度 79%
気圧 1012 hPa
視程: 4000m
煙霧

METAR: GUCY 180100Z 00000KT 4000 HZ NSC 26/22 Q1012 NOSIG

時間: 01:46 (01:46 UTC)

予報

当レポートは2時間46分前の23:00(UTC)に作成
予報は18日の 00時(UTC)から 19日の 06時(UTC)まで有効
北西の風 4kt
視程: 5000m
煙霧
18日の 04時(UTC)から 18日の 09時(UTC)まで一時的に
変向風 2kt
視程: 2500m
高度1500ftの雲はほとんどない
18日の 18時(UTC)から 18日の 22時(UTC)まで徐々に
視程: 4000m
煙霧

TAF: GUCY 172300Z 1800/1906 32004KT 5000 HZ NSC TEMPO 1804/1809 VRB02KT 2500 BR FEW015 BECMG 1818/1822 4000 HZ

4,000以上の空港の気象観測と天気予報(METAR報とTAF報)

利用可能な観測所は地図上に黄色い丸と赤い丸で示す。

丸の上にカーソルを重ねると観測所名を参照できる。

次にクリックすると気象観測と天気予報を参照できる。

マップの切り替え:黒色「×」印の緑ボタンをクリックして拡大、「-」印の緑ボタンをクリックして縮小、緑色の三角印をクリックして隣りの地図に切り替え


METAR-TAF: